sensor_id;sensor_type;location;lat;lon;timestamp;temperature;humidity
975;DHT22;6115;49.296;10.602;2023-09-19T00:01:25;17.20;69.00
975;DHT22;6115;49.296;10.602;2023-09-19T00:06:28;17.20;68.70
975;DHT22;6115;49.296;10.602;2023-09-19T00:11:31;17.10;68.20
975;DHT22;6115;49.296;10.602;2023-09-19T00:16:33;17.10;68.10
975;DHT22;6115;49.296;10.602;2023-09-19T00:21:34;17.00;68.00
975;DHT22;6115;49.296;10.602;2023-09-19T00:26:36;17.00;68.40
975;DHT22;6115;49.296;10.602;2023-09-19T00:31:36;16.90;68.70
975;DHT22;6115;49.296;10.602;2023-09-19T00:36:38;16.90;68.80
975;DHT22;6115;49.296;10.602;2023-09-19T00:41:43;16.90;68.80
975;DHT22;6115;49.296;10.602;2023-09-19T00:46:45;16.80;68.90
975;DHT22;6115;49.296;10.602;2023-09-19T00:51:49;16.80;69.10
975;DHT22;6115;49.296;10.602;2023-09-19T00:56:50;16.80;69.10
975;DHT22;6115;49.296;10.602;2023-09-19T01:01:51;16.90;69.30
975;DHT22;6115;49.296;10.602;2023-09-19T01:06:54;16.90;69.40
975;DHT22;6115;49.296;10.602;2023-09-19T01:12:00;16.90;69.30
975;DHT22;6115;49.296;10.602;2023-09-19T01:17:14;16.90;70.10
975;DHT22;6115;49.296;10.602;2023-09-19T01:22:42;17.00;69.50
975;DHT22;6115;49.296;10.602;2023-09-19T01:28:20;16.90;69.30
975;DHT22;6115;49.296;10.602;2023-09-19T01:33:22;16.90;69.30
975;DHT22;6115;49.296;10.602;2023-09-19T01:38:23;16.90;69.50
975;DHT22;6115;49.296;10.602;2023-09-19T01:43:41;16.90;69.60
975;DHT22;6115;49.296;10.602;2023-09-19T01:48:49;17.00;70.60
975;DHT22;6115;49.296;10.602;2023-09-19T01:54:03;17.00;69.80
975;DHT22;6115;49.296;10.602;2023-09-19T01:59:21;16.90;70.10
975;DHT22;6115;49.296;10.602;2023-09-19T02:04:22;16.90;70.50
975;DHT22;6115;49.296;10.602;2023-09-19T02:09:22;16.90;70.70
975;DHT22;6115;49.296;10.602;2023-09-19T02:14:23;16.90;70.70
975;DHT22;6115;49.296;10.602;2023-09-19T02:19:23;16.90;70.70
975;DHT22;6115;49.296;10.602;2023-09-19T02:24:24;16.90;70.80
975;DHT22;6115;49.296;10.602;2023-09-19T02:29:27;16.90;70.80
975;DHT22;6115;49.296;10.602;2023-09-19T02:34:28;16.90;71.10
975;DHT22;6115;49.296;10.602;2023-09-19T02:39:28;16.80;71.00
975;DHT22;6115;49.296;10.602;2023-09-19T02:44:29;16.70;71.50
975;DHT22;6115;49.296;10.602;2023-09-19T02:49:30;16.70;72.10
975;DHT22;6115;49.296;10.602;2023-09-19T02:54:30;16.60;72.70
975;DHT22;6115;49.296;10.602;2023-09-19T02:59:32;16.60;73.00
975;DHT22;6115;49.296;10.602;2023-09-19T03:04:32;16.60;73.30
975;DHT22;6115;49.296;10.602;2023-09-19T03:09:34;16.60;73.10
975;DHT22;6115;49.296;10.602;2023-09-19T03:14:34;16.60;72.90
975;DHT22;6115;49.296;10.602;2023-09-19T03:19:35;16.60;72.80
975;DHT22;6115;49.296;10.602;2023-09-19T03:24:37;16.50;73.20
975;DHT22;6115;49.296;10.602;2023-09-19T03:29:38;16.60;73.60
975;DHT22;6115;49.296;10.602;2023-09-19T03:34:39;16.60;73.60
975;DHT22;6115;49.296;10.602;2023-09-19T03:39:44;16.50;73.40
975;DHT22;6115;49.296;10.602;2023-09-19T03:44:44;16.60;73.80
975;DHT22;6115;49.296;10.602;2023-09-19T03:49:45;16.50;74.10
975;DHT22;6115;49.296;10.602;2023-09-19T03:54:45;16.60;74.30
975;DHT22;6115;49.296;10.602;2023-09-19T03:59:46;16.60;74.40
975;DHT22;6115;49.296;10.602;2023-09-19T04:04:51;16.50;74.30
975;DHT22;6115;49.296;10.602;2023-09-19T04:09:52;16.50;74.60
975;DHT22;6115;49.296;10.602;2023-09-19T04:14:53;16.60;74.30
975;DHT22;6115;49.296;10.602;2023-09-19T04:19:54;16.60;73.70
975;DHT22;6115;49.296;10.602;2023-09-19T04:24:55;16.60;73.40
975;DHT22;6115;49.296;10.602;2023-09-19T04:29:55;16.70;73.50
975;DHT22;6115;49.296;10.602;2023-09-19T04:34:59;16.60;73.00
975;DHT22;6115;49.296;10.602;2023-09-19T04:40:03;16.70;73.40
975;DHT22;6115;49.296;10.602;2023-09-19T04:45:06;16.60;73.10
975;DHT22;6115;49.296;10.602;2023-09-19T04:50:08;16.70;73.10
975;DHT22;6115;49.296;10.602;2023-09-19T04:55:14;16.60;73.00
975;DHT22;6115;49.296;10.602;2023-09-19T05:00:19;16.60;72.60
975;DHT22;6115;49.296;10.602;2023-09-19T05:05:23;16.60;72.80
975;DHT22;6115;49.296;10.602;2023-09-19T05:10:25;16.70;73.70
975;DHT22;6115;49.296;10.602;2023-09-19T05:15:26;16.70;72.50
975;DHT22;6115;49.296;10.602;2023-09-19T05:20:27;16.70;72.60
975;DHT22;6115;49.296;10.602;2023-09-19T05:25:33;16.80;72.40
975;DHT22;6115;49.296;10.602;2023-09-19T05:30:38;16.70;72.50
975;DHT22;6115;49.296;10.602;2023-09-19T05:35:38;16.60;73.40
975;DHT22;6115;49.296;10.602;2023-09-19T05:40:43;16.60;73.30
975;DHT22;6115;49.296;10.602;2023-09-19T05:45:45;16.50;73.40
975;DHT22;6115;49.296;10.602;2023-09-19T05:50:46;16.60;73.80
975;DHT22;6115;49.296;10.602;2023-09-19T05:55:49;16.60;74.10
975;DHT22;6115;49.296;10.602;2023-09-19T06:00:50;16.60;74.20
975;DHT22;6115;49.296;10.602;2023-09-19T06:05:50;16.80;73.90
975;DHT22;6115;49.296;10.602;2023-09-19T06:10:53;16.80;73.70
975;DHT22;6115;49.296;10.602;2023-09-19T06:15:57;16.80;73.30
975;DHT22;6115;49.296;10.602;2023-09-19T06:20:59;16.80;72.40
975;DHT22;6115;49.296;10.602;2023-09-19T06:26:00;16.70;72.30
975;DHT22;6115;49.296;10.602;2023-09-19T06:31:02;16.70;71.70
975;DHT22;6115;49.296;10.602;2023-09-19T06:36:03;16.80;71.90
975;DHT22;6115;49.296;10.602;2023-09-19T06:41:05;16.80;71.30
975;DHT22;6115;49.296;10.602;2023-09-19T06:46:06;16.70;70.90
975;DHT22;6115;49.296;10.602;2023-09-19T06:51:07;16.70;71.30
975;DHT22;6115;49.296;10.602;2023-09-19T06:56:08;16.70;71.70
975;DHT22;6115;49.296;10.602;2023-09-19T07:01:08;16.80;71.10
975;DHT22;6115;49.296;10.602;2023-09-19T07:06:09;17.00;71.00
975;DHT22;6115;49.296;10.602;2023-09-19T07:11:09;17.20;70.00
975;DHT22;6115;49.296;10.602;2023-09-19T07:16:12;17.20;67.30
975;DHT22;6115;49.296;10.602;2023-09-19T07:21:28;17.20;67.30
975;DHT22;6115;49.296;10.602;2023-09-19T07:26:28;17.30;66.40
975;DHT22;6115;49.296;10.602;2023-09-19T07:31:29;17.30;65.10
975;DHT22;6115;49.296;10.602;2023-09-19T07:36:31;17.40;64.10
975;DHT22;6115;49.296;10.602;2023-09-19T07:41:33;17.60;64.00
975;DHT22;6115;49.296;10.602;2023-09-19T07:46:33;17.60;62.10
975;DHT22;6115;49.296;10.602;2023-09-19T07:51:34;17.60;62.00
975;DHT22;6115;49.296;10.602;2023-09-19T07:56:34;17.60;61.60
975;DHT22;6115;49.296;10.602;2023-09-19T08:01:35;17.70;61.70
975;DHT22;6115;49.296;10.602;2023-09-19T08:06:36;17.70;62.10
975;DHT22;6115;49.296;10.602;2023-09-19T08:11:38;17.80;61.20
975;DHT22;6115;49.296;10.602;2023-09-19T08:16:39;17.80;61.40
975;DHT22;6115;49.296;10.602;2023-09-19T08:21:40;17.80;60.70
975;DHT22;6115;49.296;10.602;2023-09-19T08:26:41;17.70;59.30
975;DHT22;6115;49.296;10.602;2023-09-19T08:31:41;17.70;58.80
975;DHT22;6115;49.296;10.602;2023-09-19T08:36:42;17.90;57.30
975;DHT22;6115;49.296;10.602;2023-09-19T08:41:45;18.00;57.60
975;DHT22;6115;49.296;10.602;2023-09-19T08:46:46;18.30;57.60
975;DHT22;6115;49.296;10.602;2023-09-19T08:51:55;18.60;57.30
975;DHT22;6115;49.296;10.602;2023-09-19T08:57:06;18.80;55.60
975;DHT22;6115;49.296;10.602;2023-09-19T09:02:12;18.30;56.30
975;DHT22;6115;49.296;10.602;2023-09-19T09:07:13;18.50;55.90
975;DHT22;6115;49.296;10.602;2023-09-19T09:12:14;18.80;56.20
975;DHT22;6115;49.296;10.602;2023-09-19T09:17:16;18.90;56.20
975;DHT22;6115;49.296;10.602;2023-09-19T09:22:20;18.90;55.90
975;DHT22;6115;49.296;10.602;2023-09-19T09:27:21;18.80;56.40
975;DHT22;6115;49.296;10.602;2023-09-19T09:32:26;18.80;56.40
975;DHT22;6115;49.296;10.602;2023-09-19T09:37:29;18.80;56.10
975;DHT22;6115;49.296;10.602;2023-09-19T09:42:35;18.90;56.90
975;DHT22;6115;49.296;10.602;2023-09-19T09:47:46;18.90;56.80
975;DHT22;6115;49.296;10.602;2023-09-19T09:52:55;18.70;56.20
975;DHT22;6115;49.296;10.602;2023-09-19T09:58:20;18.80;55.30
975;DHT22;6115;49.296;10.602;2023-09-19T10:03:31;19.00;52.90
975;DHT22;6115;49.296;10.602;2023-09-19T10:08:33;19.10;51.60
975;DHT22;6115;49.296;10.602;2023-09-19T10:13:36;19.50;50.30
975;DHT22;6115;49.296;10.602;2023-09-19T10:18:38;19.70;49.80
975;DHT22;6115;49.296;10.602;2023-09-19T10:23:40;19.80;49.90
975;DHT22;6115;49.296;10.602;2023-09-19T10:28:47;19.50;49.00
975;DHT22;6115;49.296;10.602;2023-09-19T10:33:50;19.50;49.60
975;DHT22;6115;49.296;10.602;2023-09-19T10:38:54;19.70;49.80
975;DHT22;6115;49.296;10.602;2023-09-19T10:43:57;20.60;49.10
975;DHT22;6115;49.296;10.602;2023-09-19T10:49:00;20.40;47.90
975;DHT22;6115;49.296;10.602;2023-09-19T10:54:12;20.30;47.10
975;DHT22;6115;49.296;10.602;2023-09-19T10:59:18;20.30;47.30
975;DHT22;6115;49.296;10.602;2023-09-19T11:04:30;20.50;47.00
975;DHT22;6115;49.296;10.602;2023-09-19T11:14:53;21.40;46.20
975;DHT22;6115;49.296;10.602;2023-09-19T11:30:42;21.00;45.90
975;DHT22;6115;49.296;10.602;2023-09-19T11:46:22;22.00;45.70
975;DHT22;6115;49.296;10.602;2023-09-19T11:51:23;22.00;45.30
975;DHT22;6115;49.296;10.602;2023-09-19T11:56:27;21.50;45.00
975;DHT22;6115;49.296;10.602;2023-09-19T12:01:33;21.60;45.40
975;DHT22;6115;49.296;10.602;2023-09-19T12:06:35;21.80;45.00
975;DHT22;6115;49.296;10.602;2023-09-19T12:11:42;21.90;45.00
975;DHT22;6115;49.296;10.602;2023-09-19T12:16:51;21.60;45.00
975;DHT22;6115;49.296;10.602;2023-09-19T12:27:06;21.30;46.10
975;DHT22;6115;49.296;10.602;2023-09-19T12:32:06;21.60;46.60
975;DHT22;6115;49.296;10.602;2023-09-19T12:42:12;21.70;45.50
975;DHT22;6115;49.296;10.602;2023-09-19T12:47:17;21.70;45.40
975;DHT22;6115;49.296;10.602;2023-09-19T12:52:20;22.10;44.70
975;DHT22;6115;49.296;10.602;2023-09-19T12:57:24;22.30;44.10
975;DHT22;6115;49.296;10.602;2023-09-19T13:02:29;22.30;43.30
975;DHT22;6115;49.296;10.602;2023-09-19T13:07:46;22.20;44.00
975;DHT22;6115;49.296;10.602;2023-09-19T13:12:47;21.80;42.60
975;DHT22;6115;49.296;10.602;2023-09-19T13:17:49;21.30;45.10
975;DHT22;6115;49.296;10.602;2023-09-19T13:22:49;21.10;45.00
975;DHT22;6115;49.296;10.602;2023-09-19T13:27:55;20.90;45.90
975;DHT22;6115;49.296;10.602;2023-09-19T13:33:06;21.00;46.20
975;DHT22;6115;49.296;10.602;2023-09-19T13:38:07;21.50;43.30
975;DHT22;6115;49.296;10.602;2023-09-19T13:43:11;21.70;42.10
975;DHT22;6115;49.296;10.602;2023-09-19T13:48:12;21.90;43.00
975;DHT22;6115;49.296;10.602;2023-09-19T13:53:13;22.10;42.10
975;DHT22;6115;49.296;10.602;2023-09-19T13:58:14;22.10;42.50
975;DHT22;6115;49.296;10.602;2023-09-19T14:03:14;22.10;42.60
975;DHT22;6115;49.296;10.602;2023-09-19T14:08:15;22.20;42.30
975;DHT22;6115;49.296;10.602;2023-09-19T14:13:15;22.50;42.00
975;DHT22;6115;49.296;10.602;2023-09-19T14:18:16;22.30;42.70
975;DHT22;6115;49.296;10.602;2023-09-19T14:23:16;22.50;40.80
975;DHT22;6115;49.296;10.602;2023-09-19T14:28:17;22.40;40.60
975;DHT22;6115;49.296;10.602;2023-09-19T14:33:18;22.40;41.20
975;DHT22;6115;49.296;10.602;2023-09-19T14:38:19;22.60;40.20
975;DHT22;6115;49.296;10.602;2023-09-19T14:43:22;22.60;40.00
975;DHT22;6115;49.296;10.602;2023-09-19T14:48:23;23.00;39.30
975;DHT22;6115;49.296;10.602;2023-09-19T14:53:26;22.80;39.10
975;DHT22;6115;49.296;10.602;2023-09-19T14:58:28;23.10;39.20
975;DHT22;6115;49.296;10.602;2023-09-19T15:03:31;23.10;38.60
975;DHT22;6115;49.296;10.602;2023-09-19T15:08:32;23.10;38.60
975;DHT22;6115;49.296;10.602;2023-09-19T15:13:36;22.80;39.50
975;DHT22;6115;49.296;10.602;2023-09-19T15:18:37;22.60;38.20
975;DHT22;6115;49.296;10.602;2023-09-19T15:23:39;22.30;39.10
975;DHT22;6115;49.296;10.602;2023-09-19T15:28:40;22.10;39.70
975;DHT22;6115;49.296;10.602;2023-09-19T15:33:41;22.10;40.00
975;DHT22;6115;49.296;10.602;2023-09-19T15:43:58;22.50;39.70
975;DHT22;6115;49.296;10.602;2023-09-19T15:49:02;22.50;39.90
975;DHT22;6115;49.296;10.602;2023-09-19T15:54:21;22.20;40.00
975;DHT22;6115;49.296;10.602;2023-09-19T15:59:22;22.00;41.30
975;DHT22;6115;49.296;10.602;2023-09-19T16:04:22;21.80;41.10
975;DHT22;6115;49.296;10.602;2023-09-19T16:09:23;21.60;41.00
975;DHT22;6115;49.296;10.602;2023-09-19T16:14:23;21.30;41.80
975;DHT22;6115;49.296;10.602;2023-09-19T16:19:24;21.20;41.70
975;DHT22;6115;49.296;10.602;2023-09-19T16:24:25;21.20;41.70
975;DHT22;6115;49.296;10.602;2023-09-19T16:29:26;21.00;42.50
975;DHT22;6115;49.296;10.602;2023-09-19T16:34:27;21.10;43.30
975;DHT22;6115;49.296;10.602;2023-09-19T16:39:27;21.20;43.10
975;DHT22;6115;49.296;10.602;2023-09-19T16:44:28;21.10;42.60
975;DHT22;6115;49.296;10.602;2023-09-19T16:49:30;21.00;42.90
975;DHT22;6115;49.296;10.602;2023-09-19T16:54:30;20.90;43.50
975;DHT22;6115;49.296;10.602;2023-09-19T16:59:31;20.80;43.70
975;DHT22;6115;49.296;10.602;2023-09-19T17:04:31;20.70;44.60
975;DHT22;6115;49.296;10.602;2023-09-19T17:09:32;20.70;45.00
975;DHT22;6115;49.296;10.602;2023-09-19T17:14:36;20.80;45.80
975;DHT22;6115;49.296;10.602;2023-09-19T17:19:37;20.70;46.10
975;DHT22;6115;49.296;10.602;2023-09-19T17:24:37;20.60;47.00
975;DHT22;6115;49.296;10.602;2023-09-19T17:29:45;20.30;47.70
975;DHT22;6115;49.296;10.602;2023-09-19T17:34:47;20.00;48.20
975;DHT22;6115;49.296;10.602;2023-09-19T17:39:49;19.90;49.00
975;DHT22;6115;49.296;10.602;2023-09-19T17:44:50;19.80;49.30
975;DHT22;6115;49.296;10.602;2023-09-19T17:49:52;19.70;49.80
975;DHT22;6115;49.296;10.602;2023-09-19T17:54:52;19.50;49.70
975;DHT22;6115;49.296;10.602;2023-09-19T17:59:53;19.20;50.00
975;DHT22;6115;49.296;10.602;2023-09-19T18:04:55;19.10;51.20
975;DHT22;6115;49.296;10.602;2023-09-19T18:09:57;18.90;51.40
975;DHT22;6115;49.296;10.602;2023-09-19T18:15:00;18.70;52.00
975;DHT22;6115;49.296;10.602;2023-09-19T18:20:02;18.50;52.60
975;DHT22;6115;49.296;10.602;2023-09-19T18:25:05;18.30;53.10
975;DHT22;6115;49.296;10.602;2023-09-19T18:30:07;18.20;53.00
975;DHT22;6115;49.296;10.602;2023-09-19T18:35:09;18.00;53.30
975;DHT22;6115;49.296;10.602;2023-09-19T18:40:09;17.90;53.80
975;DHT22;6115;49.296;10.602;2023-09-19T18:45:11;17.70;54.10
975;DHT22;6115;49.296;10.602;2023-09-19T18:50:11;17.60;54.30
975;DHT22;6115;49.296;10.602;2023-09-19T18:55:12;17.50;55.10
975;DHT22;6115;49.296;10.602;2023-09-19T19:00:14;17.40;55.80
975;DHT22;6115;49.296;10.602;2023-09-19T19:05:16;17.30;56.80
975;DHT22;6115;49.296;10.602;2023-09-19T19:10:17;17.10;56.60
975;DHT22;6115;49.296;10.602;2023-09-19T19:15:20;17.00;56.70
975;DHT22;6115;49.296;10.602;2023-09-19T19:20:21;16.90;56.80
975;DHT22;6115;49.296;10.602;2023-09-19T19:25:24;16.70;57.00
975;DHT22;6115;49.296;10.602;2023-09-19T19:30:26;16.60;57.40
975;DHT22;6115;49.296;10.602;2023-09-19T19:35:27;16.50;57.80
975;DHT22;6115;49.296;10.602;2023-09-19T19:40:29;16.40;58.10
975;DHT22;6115;49.296;10.602;2023-09-19T19:45:30;16.40;58.10
975;DHT22;6115;49.296;10.602;2023-09-19T19:50:37;16.30;58.10
975;DHT22;6115;49.296;10.602;2023-09-19T19:55:38;16.20;58.50
975;DHT22;6115;49.296;10.602;2023-09-19T20:00:40;16.20;58.70
975;DHT22;6115;49.296;10.602;2023-09-19T20:05:43;16.10;59.10
975;DHT22;6115;49.296;10.602;2023-09-19T20:10:44;16.10;59.70
975;DHT22;6115;49.296;10.602;2023-09-19T20:15:55;16.00;59.80
975;DHT22;6115;49.296;10.602;2023-09-19T20:20:56;15.90;60.00
975;DHT22;6115;49.296;10.602;2023-09-19T20:26:01;15.70;59.80
975;DHT22;6115;49.296;10.602;2023-09-19T20:31:11;15.50;60.30
975;DHT22;6115;49.296;10.602;2023-09-19T20:36:14;15.50;60.20
975;DHT22;6115;49.296;10.602;2023-09-19T20:41:15;15.40;60.60
975;DHT22;6115;49.296;10.602;2023-09-19T20:46:15;15.30;61.00
975;DHT22;6115;49.296;10.602;2023-09-19T20:51:16;15.20;61.60
975;DHT22;6115;49.296;10.602;2023-09-19T20:56:20;15.00;61.60
975;DHT22;6115;49.296;10.602;2023-09-19T21:01:20;15.00;61.60
975;DHT22;6115;49.296;10.602;2023-09-19T21:06:21;14.90;62.10
975;DHT22;6115;49.296;10.602;2023-09-19T21:11:23;14.80;62.40
975;DHT22;6115;49.296;10.602;2023-09-19T21:16:24;14.80;62.40
975;DHT22;6115;49.296;10.602;2023-09-19T21:21:24;14.70;62.60
975;DHT22;6115;49.296;10.602;2023-09-19T21:26:25;14.50;62.80
975;DHT22;6115;49.296;10.602;2023-09-19T21:31:25;14.40;63.00
975;DHT22;6115;49.296;10.602;2023-09-19T21:36:26;14.30;63.40
975;DHT22;6115;49.296;10.602;2023-09-19T21:41:30;14.30;63.40
975;DHT22;6115;49.296;10.602;2023-09-19T21:46:31;14.30;63.40
975;DHT22;6115;49.296;10.602;2023-09-19T21:51:32;14.20;63.30
975;DHT22;6115;49.296;10.602;2023-09-19T21:56:33;14.10;64.00
975;DHT22;6115;49.296;10.602;2023-09-19T22:01:34;13.90;64.30
975;DHT22;6115;49.296;10.602;2023-09-19T22:06:34;13.80;64.80
975;DHT22;6115;49.296;10.602;2023-09-19T22:11:36;13.60;65.00
975;DHT22;6115;49.296;10.602;2023-09-19T22:16:37;13.50;64.80
975;DHT22;6115;49.296;10.602;2023-09-19T22:21:39;13.60;64.70
975;DHT22;6115;49.296;10.602;2023-09-19T22:26:39;13.50;64.80
975;DHT22;6115;49.296;10.602;2023-09-19T22:31:46;13.40;65.10
975;DHT22;6115;49.296;10.602;2023-09-19T22:36:47;13.40;65.10
975;DHT22;6115;49.296;10.602;2023-09-19T22:41:53;13.50;65.10
975;DHT22;6115;49.296;10.602;2023-09-19T22:46:54;13.40;64.90
975;DHT22;6115;49.296;10.602;2023-09-19T22:51:56;13.30;65.20
975;DHT22;6115;49.296;10.602;2023-09-19T22:56:59;13.10;65.90
975;DHT22;6115;49.296;10.602;2023-09-19T23:02:02;13.10;66.80
975;DHT22;6115;49.296;10.602;2023-09-19T23:07:05;13.10;66.90
975;DHT22;6115;49.296;10.602;2023-09-19T23:12:06;13.00;67.00
975;DHT22;6115;49.296;10.602;2023-09-19T23:17:11;12.90;67.10
975;DHT22;6115;49.296;10.602;2023-09-19T23:22:13;12.90;66.90
975;DHT22;6115;49.296;10.602;2023-09-19T23:27:28;13.00;67.10
975;DHT22;6115;49.296;10.602;2023-09-19T23:32:34;12.90;67.10
975;DHT22;6115;49.296;10.602;2023-09-19T23:37:35;12.90;67.50
975;DHT22;6115;49.296;10.602;2023-09-19T23:42:35;12.90;67.30
975;DHT22;6115;49.296;10.602;2023-09-19T23:47:36;12.80;67.40
975;DHT22;6115;49.296;10.602;2023-09-19T23:52:39;12.80;67.50
975;DHT22;6115;49.296;10.602;2023-09-19T23:57:39;12.80;68.30
